createdAt,value
2019-03-24T00:00:02.560Z,1024.26
2019-03-24T00:01:02.539Z,1024.24
2019-03-24T00:02:02.544Z,1024.28
2019-03-24T00:03:02.558Z,1024.27
2019-03-24T00:04:02.574Z,1024.30
2019-03-24T00:05:02.523Z,1024.29
2019-03-24T00:06:02.504Z,1024.26
2019-03-24T00:07:02.476Z,1024.28
2019-03-24T00:08:02.471Z,1024.24
2019-03-24T00:09:02.463Z,1024.25
2019-03-24T00:10:02.485Z,1024.22
2019-03-24T00:11:02.439Z,1024.17
2019-03-24T00:12:02.421Z,1024.21
2019-03-24T00:13:02.436Z,1024.21
2019-03-24T00:14:02.440Z,1024.22
2019-03-24T00:15:02.406Z,1024.21
2019-03-24T00:16:02.413Z,1024.23
2019-03-24T00:17:02.375Z,1024.24
2019-03-24T00:18:02.383Z,1024.27
2019-03-24T00:19:02.360Z,1024.26
2019-03-24T00:20:02.360Z,1024.28
2019-03-24T00:21:02.333Z,1024.25
2019-03-24T00:22:02.337Z,1024.31
2019-03-24T00:23:02.331Z,1024.32
2019-03-24T00:24:02.313Z,1024.34
2019-03-24T00:25:02.319Z,1024.36
2019-03-24T00:26:02.354Z,1024.32
2019-03-24T00:27:02.277Z,1024.33
2019-03-24T00:28:02.251Z,1024.31
2019-03-24T00:29:02.253Z,1024.33
2019-03-24T00:30:02.229Z,1024.33
2019-03-24T00:31:02.233Z,1024.30
2019-03-24T00:32:02.231Z,1024.31
2019-03-24T00:33:02.214Z,1024.30
2019-03-24T00:34:02.190Z,1024.30
2019-03-24T00:35:02.182Z,1024.26
2019-03-24T00:36:03.098Z,1024.27
2019-03-24T00:37:02.161Z,1024.29
2019-03-24T00:38:02.184Z,1024.27
2019-03-24T00:39:02.150Z,1024.27
2019-03-24T00:40:02.127Z,1024.26
2019-03-24T00:41:02.151Z,1024.28
2019-03-24T00:42:03.102Z,1024.28
2019-03-24T00:43:02.152Z,1024.28
2019-03-24T00:44:02.087Z,1024.27
2019-03-24T00:45:02.097Z,1024.29
2019-03-24T00:46:02.060Z,1024.28
2019-03-24T00:47:02.124Z,1024.29
2019-03-24T00:48:02.056Z,1024.31
2019-03-24T00:49:02.054Z,1024.33
2019-03-24T00:50:02.029Z,1024.37
2019-03-24T00:51:02.027Z,1024.36
2019-03-24T00:52:02.012Z,1024.38
2019-03-24T00:53:02.029Z,1024.34
2019-03-24T00:54:01.978Z,1024.36
2019-03-24T00:55:01.984Z,1024.38
2019-03-24T00:56:01.983Z,1024.40
2019-03-24T00:57:01.992Z,1024.38
2019-03-24T00:58:01.972Z,1024.37
2019-03-24T00:59:01.934Z,1024.37
2019-03-24T01:00:01.946Z,1024.35
2019-03-24T01:01:01.906Z,1024.36
2019-03-24T01:02:01.917Z,1024.38
2019-03-24T01:03:01.880Z,1024.38
2019-03-24T01:04:01.902Z,1024.31
2019-03-24T01:05:01.906Z,1024.29
2019-03-24T01:06:01.994Z,1024.26
2019-03-24T01:07:01.848Z,1024.29
2019-03-24T01:08:01.838Z,1024.29
2019-03-24T01:09:02.724Z,1024.27
2019-03-24T01:10:02.180Z,1024.30
2019-03-24T01:11:02.622Z,1024.31
2019-03-24T01:12:02.630Z,1024.32
2019-03-24T01:13:01.829Z,1024.32
2019-03-24T01:14:03.271Z,1024.27
2019-03-24T01:15:01.814Z,1024.27
2019-03-24T01:16:01.803Z,1024.23
2019-03-24T01:17:01.735Z,1024.20
2019-03-24T01:18:01.732Z,1024.18
2019-03-24T01:19:01.715Z,1024.16
2019-03-24T01:20:01.778Z,1024.12
2019-03-24T01:21:01.766Z,1024.13
2019-03-24T01:22:01.979Z,1024.10
2019-03-24T01:23:01.692Z,1024.08
2019-03-24T01:24:01.681Z,1024.12
2019-03-24T01:25:01.694Z,1024.14
2019-03-24T01:26:01.652Z,1024.13
2019-03-24T01:27:01.641Z,1024.12
2019-03-24T01:28:01.628Z,1024.15
2019-03-24T01:29:01.679Z,1024.16
2019-03-24T01:30:01.777Z,1024.14
2019-03-24T01:31:01.643Z,1024.15
2019-03-24T01:32:01.622Z,1024.13
2019-03-24T01:33:01.573Z,1024.16
2019-03-24T01:34:01.580Z,1024.12
2019-03-24T01:35:01.711Z,1024.14
2019-03-24T01:36:01.554Z,1024.10
2019-03-24T01:37:01.528Z,1024.06
2019-03-24T01:38:01.588Z,1024.13
2019-03-24T01:39:01.503Z,1024.11
2019-03-24T01:40:01.499Z,1024.14
2019-03-24T01:41:01.507Z,1024.12
2019-03-24T01:42:01.472Z,1024.08
2019-03-24T01:43:01.464Z,1024.14
2019-03-24T01:44:01.444Z,1024.13
2019-03-24T01:45:02.147Z,1024.11
2019-03-24T01:46:01.473Z,1024.12
2019-03-24T01:47:01.416Z,1024.13
2019-03-24T01:48:01.418Z,1024.13
2019-03-24T01:49:01.410Z,1024.07
2019-03-24T01:50:01.599Z,1024.10
2019-03-24T01:51:01.373Z,1024.10
2019-03-24T01:52:01.422Z,1024.10
2019-03-24T01:53:01.400Z,1024.05
2019-03-24T01:54:13.091Z,1024.09
2019-03-24T01:55:01.561Z,1024.06
2019-03-24T01:56:01.487Z,1024.09
2019-03-24T01:57:01.399Z,1024.09
2019-03-24T01:58:01.808Z,1024.07
2019-03-24T01:59:01.520Z,1024.03
2019-03-24T02:00:02.133Z,1024.02
2019-03-24T02:01:01.395Z,1024.03
2019-03-24T02:02:01.315Z,1023.99
2019-03-24T02:03:01.443Z,1023.99
2019-03-24T02:04:01.256Z,1023.95
2019-03-24T02:05:01.309Z,1024.00
2019-03-24T02:06:02.132Z,1023.98
2019-03-24T02:07:01.334Z,1023.94
2019-03-24T02:08:01.303Z,1023.94
2019-03-24T02:09:01.317Z,1023.94
2019-03-24T02:10:01.214Z,1023.90
2019-03-24T02:11:01.203Z,1023.92
2019-03-24T02:12:01.175Z,1023.92
2019-03-24T02:13:01.157Z,1023.95
2019-03-24T02:14:01.631Z,1023.95
2019-03-24T02:15:01.161Z,1023.98
2019-03-24T02:16:09.041Z,1024.04
2019-03-24T02:17:02.759Z,1024.02
2019-03-24T02:18:01.113Z,1024.02
2019-03-24T02:19:02.157Z,1024.02
2019-03-24T02:20:01.093Z,1024.02
2019-03-24T02:21:01.161Z,1024.00
2019-03-24T02:22:01.631Z,1024.03
2019-03-24T02:23:01.056Z,1024.01
2019-03-24T02:24:02.162Z,1024.03
2019-03-24T02:25:01.044Z,1024.01
2019-03-24T02:26:01.039Z,1024.03
2019-03-24T02:27:01.087Z,1024.00
2019-03-24T02:28:02.179Z,1024.00
2019-03-24T02:29:00.999Z,1023.99
2019-03-24T02:30:01.003Z,1023.97
2019-03-24T02:31:01.634Z,1023.99
2019-03-24T02:32:01.639Z,1023.98
2019-03-24T02:33:01.062Z,1024.05
2019-03-24T02:34:00.935Z,1023.99
2019-03-24T02:35:01.736Z,1024.04
2019-03-24T02:36:01.758Z,1024.03
2019-03-24T02:37:00.936Z,1024.08
2019-03-24T02:38:01.638Z,1024.05
2019-03-24T02:39:00.898Z,1024.04
2019-03-24T02:40:00.891Z,1024.04
2019-03-24T02:41:01.254Z,1024.00
2019-03-24T02:42:01.647Z,1023.99
2019-03-24T02:43:01.636Z,1023.96
2019-03-24T02:44:01.729Z,1023.92
2019-03-24T02:45:00.875Z,1023.90
2019-03-24T02:46:00.868Z,1023.91
2019-03-24T02:47:00.822Z,1023.92
2019-03-24T02:48:00.870Z,1023.81
2019-03-24T02:49:00.780Z,1023.81
2019-03-24T02:50:00.806Z,1023.84
2019-03-24T02:51:00.796Z,1023.79
2019-03-24T02:52:00.873Z,1023.80
2019-03-24T02:53:00.776Z,1023.77
2019-03-24T02:54:00.884Z,1023.75
2019-03-24T02:55:00.819Z,1023.78
2019-03-24T02:56:00.742Z,1023.73
2019-03-24T02:57:00.786Z,1023.76
2019-03-24T02:58:00.832Z,1023.75
2019-03-24T02:59:00.728Z,1023.74
2019-03-24T03:00:01.646Z,1023.75
2019-03-24T03:01:01.142Z,1023.79
2019-03-24T03:02:01.138Z,1023.73
2019-03-24T03:03:00.728Z,1023.81
2019-03-24T03:04:00.608Z,1023.87
2019-03-24T03:05:00.624Z,1023.80
2019-03-24T03:06:00.635Z,1023.83
2019-03-24T03:07:00.614Z,1023.81
2019-03-24T03:08:00.638Z,1023.84
2019-03-24T03:09:00.631Z,1023.86
2019-03-24T03:10:00.601Z,1023.87
2019-03-24T03:11:00.544Z,1023.85
2019-03-24T03:12:00.730Z,1023.82
2019-03-24T03:13:00.540Z,1023.84
2019-03-24T03:14:00.613Z,1023.87
2019-03-24T03:15:00.555Z,1023.88
2019-03-24T03:16:00.535Z,1023.83
2019-03-24T03:17:00.548Z,1023.86
2019-03-24T03:18:00.572Z,1023.89
2019-03-24T03:19:00.481Z,1023.87
2019-03-24T03:20:00.585Z,1023.89
2019-03-24T03:21:00.465Z,1023.86
2019-03-24T03:22:00.476Z,1023.83
2019-03-24T03:23:00.488Z,1023.83
2019-03-24T03:24:00.461Z,1023.88
2019-03-24T03:25:00.475Z,1023.84
2019-03-24T03:26:00.396Z,1023.81
2019-03-24T03:27:00.396Z,1023.79
2019-03-24T03:28:00.416Z,1023.86
2019-03-24T03:29:00.400Z,1023.80
2019-03-24T03:30:00.983Z,1023.82
2019-03-24T03:31:00.377Z,1023.77
2019-03-24T03:32:00.361Z,1023.83
2019-03-24T03:33:00.506Z,1023.82
2019-03-24T03:34:05.154Z,1023.78
2019-03-24T03:35:00.898Z,1023.84
2019-03-24T03:36:00.315Z,1023.80
2019-03-24T03:37:00.366Z,1023.82
2019-03-24T03:38:00.297Z,1023.81
2019-03-24T03:39:00.346Z,1023.82
2019-03-24T03:40:00.734Z,1023.82
2019-03-24T03:41:00.314Z,1023.83
2019-03-24T03:42:00.257Z,1023.83
2019-03-24T03:43:00.247Z,1023.78
2019-03-24T03:44:00.250Z,1023.81
2019-03-24T03:45:01.144Z,1023.82
2019-03-24T03:46:00.204Z,1023.76
2019-03-24T03:47:00.210Z,1023.71
2019-03-24T03:48:00.276Z,1023.68
2019-03-24T03:49:00.145Z,1023.67
2019-03-24T03:50:00.449Z,1023.68
2019-03-24T03:51:00.144Z,1023.71
2019-03-24T03:52:00.138Z,1023.69
2019-03-24T03:53:00.148Z,1023.65
2019-03-24T03:54:11.689Z,1023.69
2019-03-24T03:55:00.097Z,1023.66
2019-03-24T03:56:00.303Z,1023.66
2019-03-24T03:57:00.257Z,1023.67
2019-03-24T03:58:00.074Z,1023.70
2019-03-24T03:59:00.105Z,1023.66
2019-03-24T04:00:00.164Z,1023.67
2019-03-24T04:01:07.843Z,1023.68
2019-03-24T04:02:00.029Z,1023.72
2019-03-24T04:03:00.262Z,1023.73
2019-03-24T04:04:00.854Z,1023.69
2019-03-24T04:05:00.028Z,1023.73
2019-03-24T04:06:00.053Z,1023.77
2019-03-24T04:07:09.289Z,1023.69
2019-03-24T04:07:59.946Z,1023.73
2019-03-24T04:08:59.928Z,1023.76
2019-03-24T04:09:59.915Z,1023.69
2019-03-24T04:10:59.939Z,1023.69
2019-03-24T04:11:59.894Z,1023.71
2019-03-24T04:12:59.882Z,1023.71
2019-03-24T04:13:59.874Z,1023.68
2019-03-24T04:14:59.893Z,1023.67
2019-03-24T04:15:59.888Z,1023.69
2019-03-24T04:17:07.165Z,1023.66
2019-03-24T04:18:00.817Z,1023.68
2019-03-24T04:18:59.808Z,1023.67
2019-03-24T04:19:59.801Z,1023.64
2019-03-24T04:20:59.832Z,1023.67
2019-03-24T04:21:59.790Z,1023.68
2019-03-24T04:22:59.779Z,1023.65
2019-03-24T04:23:59.775Z,1023.64
2019-03-24T04:24:59.749Z,1023.64
2019-03-24T04:25:59.786Z,1023.67
2019-03-24T04:26:59.738Z,1023.61
2019-03-24T04:27:59.716Z,1023.61
2019-03-24T04:28:59.724Z,1023.65
2019-03-24T04:29:59.713Z,1023.65
2019-03-24T04:30:59.699Z,1023.67
2019-03-24T04:31:59.717Z,1023.74
2019-03-24T04:32:59.662Z,1023.71
2019-03-24T04:33:59.654Z,1023.76
2019-03-24T04:34:59.655Z,1023.72
2019-03-24T04:35:59.690Z,1023.71
2019-03-24T04:36:59.634Z,1023.74
2019-03-24T04:37:59.616Z,1023.75
2019-03-24T04:38:59.626Z,1023.74
2019-03-24T04:39:59.595Z,1023.75
2019-03-24T04:40:59.593Z,1023.77
2019-03-24T04:41:59.600Z,1023.78
2019-03-24T04:42:59.569Z,1023.78
2019-03-24T04:43:59.558Z,1023.80
2019-03-24T04:44:59.541Z,1023.80
2019-03-24T04:45:59.528Z,1023.78
2019-03-24T04:46:59.552Z,1023.81
2019-03-24T04:47:59.525Z,1023.75
2019-03-24T04:48:59.533Z,1023.73
2019-03-24T04:49:59.512Z,1023.73
2019-03-24T04:50:59.489Z,1023.73
2019-03-24T04:51:59.538Z,1023.71
2019-03-24T04:52:59.453Z,1023.65
2019-03-24T04:53:59.496Z,1023.63
2019-03-24T04:54:59.439Z,1023.62
2019-03-24T04:55:59.432Z,1023.63
2019-03-24T04:56:59.423Z,1023.62
2019-03-24T04:57:59.508Z,1023.59
2019-03-24T04:58:59.449Z,1023.59
2019-03-24T04:59:59.425Z,1023.55
2019-03-24T05:00:59.381Z,1023.53
2019-03-24T05:01:59.464Z,1023.53
2019-03-24T05:02:59.367Z,1023.50
2019-03-24T05:03:59.409Z,1023.50
2019-03-24T05:04:59.349Z,1023.51
2019-03-24T05:05:59.335Z,1023.52
2019-03-24T05:06:59.315Z,1023.54
2019-03-24T05:07:59.366Z,1023.53
2019-03-24T05:08:59.374Z,1023.53
2019-03-24T05:09:59.328Z,1023.55
2019-03-24T05:10:59.273Z,1023.52
2019-03-24T05:11:59.346Z,1023.52
2019-03-24T05:12:59.254Z,1023.51
2019-03-24T05:13:59.290Z,1023.44
2019-03-24T05:14:59.259Z,1023.43
2019-03-24T05:15:59.220Z,1023.38
2019-03-24T05:16:59.219Z,1023.44
2019-03-24T05:17:59.203Z,1023.45
2019-03-24T05:18:59.193Z,1023.40
2019-03-24T05:19:59.249Z,1023.45
2019-03-24T05:20:59.183Z,1023.43
2019-03-24T05:21:59.430Z,1023.43
2019-03-24T05:22:59.162Z,1023.46
2019-03-24T05:23:59.183Z,1023.46
2019-03-24T05:24:59.166Z,1023.46
2019-03-24T05:25:59.745Z,1023.47
2019-03-24T05:26:59.095Z,1023.51
2019-03-24T05:27:59.169Z,1023.48
2019-03-24T05:28:59.101Z,1023.52
2019-03-24T05:29:59.078Z,1023.49
2019-03-24T05:31:02.424Z,1023.51
2019-03-24T05:31:59.066Z,1023.51
2019-03-24T05:32:59.313Z,1023.51
2019-03-24T05:34:00.448Z,1023.49
2019-03-24T05:34:59.048Z,1023.49
2019-03-24T05:35:59.287Z,1023.53
2019-03-24T05:37:01.998Z,1023.52
2019-03-24T05:37:59.238Z,1023.54
2019-03-24T05:38:58.983Z,1023.48
2019-03-24T05:39:58.978Z,1023.46
2019-03-24T05:40:58.991Z,1023.48
2019-03-24T05:41:59.037Z,1023.49
2019-03-24T05:42:58.960Z,1023.46
2019-03-24T05:44:00.942Z,1023.47
2019-03-24T05:45:02.595Z,1023.50
2019-03-24T05:45:59.424Z,1023.51
2019-03-24T05:47:04.233Z,1023.47
2019-03-24T05:48:03.677Z,1023.50
2019-03-24T05:49:02.444Z,1023.45
2019-03-24T05:50:02.310Z,1023.42
2019-03-24T05:50:58.842Z,1023.46
2019-03-24T05:51:58.840Z,1023.43
2019-03-24T05:52:58.831Z,1023.47
2019-03-24T05:53:58.849Z,1023.48
2019-03-24T05:54:58.810Z,1023.44
2019-03-24T05:55:58.822Z,1023.44
2019-03-24T05:56:58.820Z,1023.44
2019-03-24T05:57:59.022Z,1023.42
2019-03-24T05:58:59.167Z,1023.41
2019-03-24T06:00:00.071Z,1023.40
2019-03-24T06:00:59.193Z,1023.37
2019-03-24T06:01:59.129Z,1023.38
2019-03-24T06:02:59.498Z,1023.35
2019-03-24T06:03:58.873Z,1023.35
2019-03-24T06:04:58.707Z,1023.36
2019-03-24T06:05:59.055Z,1023.33
2019-03-24T06:06:59.579Z,1023.36
2019-03-24T06:08:00.990Z,1023.37
2019-03-24T06:08:59.944Z,1023.32
2019-03-24T06:10:01.416Z,1023.35
2019-03-24T06:10:58.649Z,1023.34
2019-03-24T06:11:58.623Z,1023.42
2019-03-24T06:12:58.640Z,1023.33
2019-03-24T06:13:58.613Z,1023.30
2019-03-24T06:14:58.598Z,1023.33
2019-03-24T06:15:58.597Z,1023.29
2019-03-24T06:16:58.587Z,1023.29
2019-03-24T06:17:58.566Z,1023.29
2019-03-24T06:18:58.607Z,1023.32
2019-03-24T06:19:58.549Z,1023.29
2019-03-24T06:20:58.558Z,1023.26
2019-03-24T06:21:58.530Z,1023.25
2019-03-24T06:22:58.504Z,1023.28
2019-03-24T06:23:58.553Z,1023.27
2019-03-24T06:24:58.498Z,1023.21
2019-03-24T06:25:58.513Z,1023.25
2019-03-24T06:26:58.474Z,1023.21
2019-03-24T06:27:58.622Z,1023.24
2019-03-24T06:28:58.486Z,1023.20
2019-03-24T06:29:58.449Z,1023.26
2019-03-24T06:30:58.432Z,1023.21
2019-03-24T06:31:58.429Z,1023.23
2019-03-24T06:32:58.408Z,1023.22
2019-03-24T06:33:58.422Z,1023.21
2019-03-24T06:34:58.429Z,1023.21
2019-03-24T06:35:58.422Z,1023.20
2019-03-24T06:36:58.358Z,1023.20
2019-03-24T06:37:58.364Z,1023.17
2019-03-24T06:38:58.338Z,1023.19
2019-03-24T06:39:58.369Z,1023.15
2019-03-24T06:40:58.353Z,1023.12
2019-03-24T06:41:58.302Z,1023.10
2019-03-24T06:42:58.299Z,1023.11
2019-03-24T06:43:58.311Z,1023.10
2019-03-24T06:44:58.291Z,1023.10
2019-03-24T06:45:58.289Z,1023.09
2019-03-24T06:46:58.357Z,1023.07
2019-03-24T06:47:58.460Z,1023.08
2019-03-24T06:48:58.234Z,1023.12
2019-03-24T06:49:58.260Z,1023.04
2019-03-24T06:50:58.265Z,1023.05
2019-03-24T06:51:58.199Z,1023.08
2019-03-24T06:52:58.187Z,1023.04
2019-03-24T06:53:58.193Z,1023.09
2019-03-24T06:54:58.172Z,1023.09
2019-03-24T06:55:58.164Z,1023.10
2019-03-24T06:56:58.199Z,1023.05
2019-03-24T06:57:58.180Z,1023.09
2019-03-24T06:58:58.131Z,1023.09
2019-03-24T06:59:58.181Z,1023.06
2019-03-24T07:00:58.117Z,1023.03
2019-03-24T07:01:58.110Z,1022.99
2019-03-24T07:02:58.115Z,1023.01
2019-03-24T07:03:58.117Z,1023.02
2019-03-24T07:04:58.067Z,1022.97
2019-03-24T07:05:58.079Z,1023.02
2019-03-24T07:06:58.041Z,1023.06
2019-03-24T07:07:58.076Z,1023.03
2019-03-24T07:08:58.070Z,1023.10
2019-03-24T07:09:58.141Z,1023.12
2019-03-24T07:10:58.006Z,1023.10
2019-03-24T07:12:00.103Z,1023.10
2019-03-24T07:12:57.992Z,1023.06
2019-03-24T07:13:57.987Z,1023.06
2019-03-24T07:14:57.970Z,1023.11
2019-03-24T07:15:57.959Z,1023.05
2019-03-24T07:16:58.014Z,1023.03
2019-03-24T07:18:07.926Z,1022.98
2019-03-24T07:18:58.920Z,1023.03
2019-03-24T07:19:57.917Z,1023.03
2019-03-24T07:20:57.909Z,1022.99
2019-03-24T07:21:57.891Z,1023.05
2019-03-24T07:22:57.978Z,1023.03
2019-03-24T07:23:57.882Z,1023.03
2019-03-24T07:24:57.857Z,1023.00
2019-03-24T07:25:57.878Z,1023.00
2019-03-24T07:26:57.860Z,1022.97
2019-03-24T07:27:57.919Z,1022.94
2019-03-24T07:28:57.828Z,1022.97
2019-03-24T07:29:58.734Z,1023.01
2019-03-24T07:31:00.556Z,1022.99
2019-03-24T07:31:57.785Z,1022.97
2019-03-24T07:32:58.301Z,1022.93
2019-03-24T07:33:57.824Z,1022.88
2019-03-24T07:34:58.783Z,1022.91
2019-03-24T07:35:57.831Z,1022.88
2019-03-24T07:36:57.745Z,1022.87
2019-03-24T07:37:57.743Z,1022.86
2019-03-24T07:38:57.720Z,1022.81
2019-03-24T07:39:57.754Z,1022.82
2019-03-24T07:40:57.696Z,1022.81
2019-03-24T07:41:57.677Z,1022.86
2019-03-24T07:42:57.672Z,1022.88
2019-03-24T07:43:57.854Z,1022.89
2019-03-24T07:44:58.485Z,1022.90
2019-03-24T07:45:57.637Z,1022.92
2019-03-24T07:46:57.630Z,1022.93
2019-03-24T07:47:57.681Z,1022.92
2019-03-24T07:48:57.611Z,1022.91
2019-03-24T07:49:57.615Z,1022.93
2019-03-24T07:50:57.593Z,1023.00
2019-03-24T07:51:57.654Z,1022.95
2019-03-24T07:52:57.566Z,1022.94
2019-03-24T07:53:57.609Z,1022.94
2019-03-24T07:54:58.394Z,1022.95
2019-03-24T07:55:57.545Z,1022.96
2019-03-24T07:56:57.573Z,1022.88
2019-03-24T07:57:57.516Z,1022.91
2019-03-24T07:58:57.525Z,1022.89
2019-03-24T07:59:57.508Z,1022.91
2019-03-24T08:00:57.551Z,1022.95
2019-03-24T08:01:57.484Z,1022.92
2019-03-24T08:02:57.485Z,1022.92
2019-03-24T08:03:57.459Z,1022.94
2019-03-24T08:04:57.487Z,1022.94
2019-03-24T08:05:57.448Z,1022.98
2019-03-24T08:06:57.459Z,1022.97
2019-03-24T08:07:57.446Z,1023.00
2019-03-24T08:08:57.426Z,1022.97
2019-03-24T08:09:57.396Z,1022.91
2019-03-24T08:10:57.403Z,1022.93
2019-03-24T08:11:57.402Z,1022.96
2019-03-24T08:12:57.388Z,1022.94
2019-03-24T08:13:57.364Z,1022.93
2019-03-24T08:14:59.023Z,1022.85
2019-03-24T08:15:57.358Z,1022.85
2019-03-24T08:16:57.353Z,1022.80
2019-03-24T08:17:57.313Z,1022.79
2019-03-24T08:18:57.300Z,1022.84
2019-03-24T08:19:57.364Z,1022.80
2019-03-24T08:20:57.263Z,1022.79
2019-03-24T08:21:57.429Z,1022.73
2019-03-24T08:22:57.249Z,1022.69
2019-03-24T08:23:57.299Z,1022.72
2019-03-24T08:24:57.223Z,1022.68
2019-03-24T08:25:57.220Z,1022.61
2019-03-24T08:26:57.239Z,1022.60
2019-03-24T08:27:57.229Z,1022.56
2019-03-24T08:28:57.187Z,1022.51
2019-03-24T08:29:57.213Z,1022.48
2019-03-24T08:30:57.147Z,1022.48
2019-03-24T08:31:57.143Z,1022.45
2019-03-24T08:32:57.215Z,1022.41
2019-03-24T08:33:57.128Z,1022.44
2019-03-24T08:34:57.114Z,1022.39
2019-03-24T08:35:57.144Z,1022.38
2019-03-24T08:36:57.092Z,1022.36
2019-03-24T08:37:57.298Z,1022.33
2019-03-24T08:38:57.077Z,1022.35
2019-03-24T08:39:57.076Z,1022.36
2019-03-24T08:40:57.055Z,1022.30
2019-03-24T08:41:57.092Z,1022.34
2019-03-24T08:42:57.133Z,1022.32
2019-03-24T08:43:57.023Z,1022.33
2019-03-24T08:44:57.019Z,1022.30
2019-03-24T08:45:57.040Z,1022.24
2019-03-24T08:46:57.048Z,1022.31
2019-03-24T08:47:57.010Z,1022.24
2019-03-24T08:49:02.159Z,1022.22
2019-03-24T08:49:56.945Z,1022.23
2019-03-24T08:50:56.946Z,1022.28
2019-03-24T08:51:56.953Z,1022.28
2019-03-24T08:52:56.921Z,1022.21
2019-03-24T08:53:56.907Z,1022.27
2019-03-24T08:54:56.938Z,1022.25
2019-03-24T08:55:56.893Z,1022.21
2019-03-24T08:56:56.911Z,1022.19
2019-03-24T08:57:56.868Z,1022.24
2019-03-24T08:58:56.917Z,1022.21
2019-03-24T08:59:56.844Z,1022.15
2019-03-24T09:00:56.878Z,1022.13
2019-03-24T09:01:56.822Z,1022.07
2019-03-24T09:02:56.821Z,1022.02
2019-03-24T09:03:56.821Z,1021.96
2019-03-24T09:04:56.793Z,1021.87
2019-03-24T09:05:56.814Z,1021.84
2019-03-24T09:06:56.779Z,1021.89
2019-03-24T09:07:56.767Z,1021.88
2019-03-24T09:08:56.752Z,1021.90
2019-03-24T09:09:56.735Z,1021.86
2019-03-24T09:10:56.774Z,1021.90
2019-03-24T09:11:57.064Z,1021.89
2019-03-24T09:12:56.725Z,1021.87
2019-03-24T09:13:57.429Z,1021.85
2019-03-24T09:14:56.692Z,1021.85
2019-03-24T09:15:56.673Z,1021.83
2019-03-24T09:16:56.698Z,1021.87
2019-03-24T09:17:56.671Z,1021.84
2019-03-24T09:18:56.646Z,1021.86
2019-03-24T09:19:56.663Z,1021.84
2019-03-24T09:20:56.630Z,1021.78
2019-03-24T09:21:56.656Z,1021.76
2019-03-24T09:22:56.613Z,1021.74
2019-03-24T09:23:56.603Z,1021.71
2019-03-24T09:24:56.605Z,1021.70
2019-03-24T09:25:56.565Z,1021.66
2019-03-24T09:26:56.573Z,1021.68
2019-03-24T09:27:56.595Z,1021.67
2019-03-24T09:28:59.208Z,1021.72
2019-03-24T09:29:56.538Z,1021.70
2019-03-24T09:30:56.527Z,1021.73
2019-03-24T09:31:56.519Z,1021.68
2019-03-24T09:32:56.481Z,1021.63
2019-03-24T09:33:56.534Z,1021.62
2019-03-24T09:34:56.476Z,1021.61
2019-03-24T09:35:56.462Z,1021.60
2019-03-24T09:36:56.452Z,1021.56
2019-03-24T09:37:56.472Z,1021.53
2019-03-24T09:38:56.433Z,1021.57
2019-03-24T09:39:56.412Z,1021.55
2019-03-24T09:40:56.436Z,1021.55
2019-03-24T09:41:56.396Z,1021.58
2019-03-24T09:42:56.403Z,1021.56
2019-03-24T09:43:56.414Z,1021.58
2019-03-24T09:44:56.384Z,1021.56
2019-03-24T09:45:56.400Z,1021.48
2019-03-24T09:46:56.399Z,1021.60
2019-03-24T09:47:56.335Z,1021.57
2019-03-24T09:49:03.175Z,1021.52
2019-03-24T09:49:57.310Z,1021.51
2019-03-24T09:50:56.300Z,1021.50
2019-03-24T09:51:56.288Z,1021.53
2019-03-24T09:52:56.307Z,1021.56
2019-03-24T09:53:56.291Z,1021.52
2019-03-24T09:54:56.311Z,1021.54
2019-03-24T09:55:56.259Z,1021.53
2019-03-24T09:56:56.245Z,1021.47
2019-03-24T09:57:56.226Z,1021.48
2019-03-24T09:58:56.254Z,1021.42
2019-03-24T09:59:56.192Z,1021.44
2019-03-24T10:00:56.187Z,1021.42
2019-03-24T10:01:56.278Z,1021.37
2019-03-24T10:02:56.173Z,1021.36
2019-03-24T10:03:56.186Z,1021.33
2019-03-24T10:04:56.182Z,1021.26
2019-03-24T10:05:56.129Z,1021.30
2019-03-24T10:06:56.279Z,1021.25
2019-03-24T10:08:10.597Z,1021.25
2019-03-24T10:08:59.646Z,1021.27
2019-03-24T10:09:56.356Z,1021.23
2019-03-24T10:10:56.162Z,1021.18
2019-03-24T10:11:56.077Z,1021.15
2019-03-24T10:12:57.817Z,1021.12
2019-03-24T10:13:56.319Z,1021.13
2019-03-24T10:14:56.057Z,1021.13
2019-03-24T10:15:56.939Z,1021.15
2019-03-24T10:16:58.321Z,1021.13
2019-03-24T10:17:56.323Z,1021.12
2019-03-24T10:18:56.441Z,1021.08
2019-03-24T10:19:56.010Z,1021.11
2019-03-24T10:20:56.127Z,1021.10
2019-03-24T10:21:59.841Z,1021.08
2019-03-24T10:22:57.079Z,1021.03
2019-03-24T10:23:58.321Z,1021.04
2019-03-24T10:25:00.060Z,1021.06
2019-03-24T10:26:03.922Z,1021.05
2019-03-24T10:27:00.854Z,1021.06
2019-03-24T10:28:00.319Z,1021.04
2019-03-24T10:28:57.480Z,1021.03
2019-03-24T10:30:02.946Z,1021.03
2019-03-24T10:30:58.515Z,1021.02
2019-03-24T10:31:58.324Z,1020.99
2019-03-24T10:32:57.097Z,1020.96
2019-03-24T10:34:00.038Z,1020.99
2019-03-24T10:34:57.158Z,1020.97
2019-03-24T10:36:21.846Z,1021.01
2019-03-24T10:36:58.627Z,1020.95
2019-03-24T10:37:57.471Z,1020.92
2019-03-24T10:38:58.133Z,1020.91
2019-03-24T10:39:57.829Z,1020.86
2019-03-24T10:40:55.898Z,1020.85
2019-03-24T10:41:58.163Z,1020.82
2019-03-24T10:42:56.575Z,1020.85
2019-03-24T10:43:58.832Z,1020.79
2019-03-24T10:44:55.906Z,1020.80
2019-03-24T10:45:57.331Z,1020.81
2019-03-24T10:46:58.990Z,1020.78
2019-03-24T10:47:58.074Z,1020.76
2019-03-24T10:48:57.066Z,1020.72
2019-03-24T10:49:58.854Z,1020.72
2019-03-24T10:50:57.460Z,1020.69
2019-03-24T10:51:57.330Z,1020.60
2019-03-24T10:52:59.999Z,1020.61
2019-03-24T10:53:59.828Z,1020.58
2019-03-24T10:55:02.337Z,1020.63
2019-03-24T10:55:57.837Z,1020.62
2019-03-24T10:57:00.017Z,1020.58
2019-03-24T10:57:57.910Z,1020.53
2019-03-24T10:58:59.331Z,1020.54
2019-03-24T10:59:56.833Z,1020.47
2019-03-24T11:00:57.840Z,1020.50
2019-03-24T11:01:57.958Z,1020.46
2019-03-24T11:02:56.834Z,1020.41
2019-03-24T11:03:55.901Z,1020.46
2019-03-24T11:04:56.340Z,1020.41
2019-03-24T11:05:57.538Z,1020.33
2019-03-24T11:06:57.917Z,1020.27
2019-03-24T11:07:58.337Z,1020.24
2019-03-24T11:08:57.440Z,1020.26
2019-03-24T11:09:57.488Z,1020.19
2019-03-24T11:10:57.851Z,1020.14
2019-03-24T11:11:57.842Z,1020.17
2019-03-24T11:12:57.334Z,1020.16
2019-03-24T11:13:56.951Z,1020.16
2019-03-24T11:14:55.727Z,1020.15
2019-03-24T11:15:55.583Z,1020.13
2019-03-24T11:16:56.334Z,1020.17
2019-03-24T11:17:56.957Z,1020.14
2019-03-24T11:18:57.840Z,1020.11
2019-03-24T11:19:58.847Z,1020.13
2019-03-24T11:20:56.836Z,1020.14
2019-03-24T11:21:56.837Z,1020.11
2019-03-24T11:22:59.326Z,1020.15
2019-03-24T11:39:28.494Z,1019.91
2019-03-24T11:40:29.596Z,1019.91
2019-03-24T11:42:55.333Z,1019.94
2019-03-24T11:43:43.301Z,1019.86
2019-03-24T11:44:40.493Z,1019.90
2019-03-24T11:46:03.743Z,1019.92
2019-03-24T11:46:39.831Z,1019.88
2019-03-24T11:47:39.724Z,1019.89
2019-03-24T11:48:48.858Z,1019.84
2019-03-24T11:49:46.075Z,1019.73
2019-03-24T11:50:40.633Z,1019.77
2019-03-24T11:51:39.917Z,1019.78
2019-03-24T11:52:39.619Z,1019.72
2019-03-24T11:53:39.618Z,1019.75
2019-03-24T11:54:39.618Z,1019.71
2019-03-24T11:55:39.626Z,1019.72
2019-03-24T11:56:39.627Z,1019.65
2019-03-24T11:57:39.609Z,1019.63
2019-03-24T11:58:39.685Z,1019.58
2019-03-24T11:59:39.575Z,1019.61
2019-03-24T12:00:39.545Z,1019.56
2019-03-24T12:01:39.620Z,1019.58
2019-03-24T12:02:39.560Z,1019.49
2019-03-24T12:03:39.510Z,1019.51
2019-03-24T12:04:39.564Z,1019.48
2019-03-24T12:05:46.541Z,1019.47
2019-03-24T12:06:42.367Z,1019.50
2019-03-24T12:07:41.929Z,1019.46
2019-03-24T12:08:42.871Z,1019.47
2019-03-24T12:09:44.286Z,1019.32
2019-03-24T12:10:40.326Z,1019.35
2019-03-24T12:11:39.440Z,1019.34
2019-03-24T12:12:40.321Z,1019.30
2019-03-24T12:13:39.437Z,1019.29
2019-03-24T12:14:39.395Z,1019.27
2019-03-24T12:15:39.385Z,1019.26
2019-03-24T12:16:39.429Z,1019.19
2019-03-24T12:17:39.369Z,1019.23
2019-03-24T12:18:39.437Z,1019.16
2019-03-24T12:19:39.372Z,1019.09
2019-03-24T12:20:39.328Z,1019.11
2019-03-24T12:21:39.358Z,1019.12